createdAt,value
2022-11-19T00:01:43.389Z,1.00
2022-11-19T00:07:18.921Z,1.00
2022-11-19T00:10:08.969Z,1.10
2022-11-19T00:12:58.157Z,1.27
2022-11-19T00:15:46.267Z,1.50
2022-11-19T00:21:22.766Z,1.30
2022-11-19T00:24:11.504Z,1.37
2022-11-19T00:29:46.679Z,1.50
2022-11-19T00:35:29.116Z,1.37
2022-11-19T00:38:17.833Z,1.10
2022-11-19T00:41:07.013Z,1.10
2022-11-19T00:46:41.481Z,1.20
2022-11-19T00:52:15.610Z,0.90
2022-11-19T00:55:06.756Z,0.90
2022-11-19T00:57:55.585Z,1.00
2022-11-19T01:00:43.975Z,1.00
2022-11-19T01:06:20.920Z,0.90
2022-11-19T01:11:54.629Z,1.00
2022-11-19T01:17:26.595Z,1.23
2022-11-19T01:25:33.664Z,0.87
2022-11-19T01:28:21.966Z,1.00
2022-11-19T01:34:00.117Z,1.07
2022-11-19T01:36:48.999Z,1.03
2022-11-19T01:42:24.237Z,0.70
2022-11-19T01:45:26.077Z,0.90
2022-11-19T01:50:55.938Z,1.07
2022-11-19T01:56:34.706Z,1.50
2022-11-19T01:59:23.360Z,1.07
2022-11-19T02:07:46.451Z,1.03
2022-11-19T02:13:26.641Z,1.07
2022-11-19T02:19:00.419Z,1.00
2022-11-19T02:24:48.834Z,1.27
2022-11-19T02:27:51.568Z,1.20
2022-11-19T02:30:41.479Z,1.27
2022-11-19T02:39:22.451Z,0.90
2022-11-19T02:42:14.806Z,0.93
2022-11-19T02:47:53.875Z,0.90
2022-11-19T02:53:27.590Z,1.10
2022-11-19T02:59:23.391Z,0.80
2022-11-19T03:04:54.154Z,0.83
2022-11-19T03:07:42.683Z,1.23
2022-11-19T03:22:25.019Z,1.00
2022-11-19T03:28:07.391Z,1.27
2022-11-19T03:33:36.328Z,1.20
2022-11-19T03:39:09.524Z,1.20
2022-11-19T03:44:47.830Z,1.20
2022-11-19T03:47:38.079Z,1.07
2022-11-19T03:53:19.391Z,1.40
2022-11-19T03:58:56.437Z,1.10
2022-11-19T04:01:46.300Z,1.23
2022-11-19T04:07:30.196Z,1.10
2022-11-19T04:13:01.280Z,1.33
2022-11-19T04:15:58.940Z,0.93
2022-11-19T04:21:33.660Z,1.50
2022-11-19T04:27:03.190Z,1.70
2022-11-19T04:32:56.394Z,2.00
2022-11-19T04:38:25.811Z,1.80
2022-11-19T04:41:14.346Z,1.60
2022-11-19T04:46:44.161Z,1.53
2022-11-19T04:52:19.884Z,1.60
2022-11-19T04:57:52.968Z,1.60
2022-11-19T05:00:41.234Z,1.70
2022-11-19T05:06:18.451Z,1.50
2022-11-19T05:11:54.277Z,1.47
2022-11-19T05:17:31.237Z,1.80
2022-11-19T05:20:20.049Z,1.70
2022-11-19T05:25:56.115Z,1.43
2022-11-19T05:31:36.262Z,1.40
2022-11-19T05:37:12.196Z,1.60
2022-11-19T05:40:01.223Z,1.60
2022-11-19T05:45:37.427Z,1.53
2022-11-19T05:48:25.833Z,1.83
2022-11-19T05:54:03.619Z,1.67
2022-11-19T05:56:52.205Z,1.63
2022-11-19T05:59:43.780Z,1.40
2022-11-19T06:05:12.262Z,1.60
2022-11-19T06:10:40.935Z,1.50
2022-11-19T06:18:55.216Z,1.50
2022-11-19T06:24:29.619Z,1.83
2022-11-19T06:30:05.446Z,1.60
2022-11-19T06:38:21.527Z,1.40
2022-11-19T06:43:59.848Z,1.60
2022-11-19T06:47:07.072Z,1.97
2022-11-19T06:52:34.350Z,1.80
2022-11-19T07:01:01.736Z,2.20
2022-11-19T07:06:37.145Z,1.67
2022-11-19T07:12:07.083Z,2.23
2022-11-19T07:17:38.036Z,1.70
2022-11-19T07:20:28.067Z,1.70
2022-11-19T07:26:03.132Z,1.50
2022-11-19T07:31:34.365Z,1.47
2022-11-19T07:34:22.614Z,1.63
2022-11-19T07:45:24.222Z,1.60
2022-11-19T07:50:56.444Z,1.30
2022-11-19T07:53:46.548Z,1.77
2022-11-19T07:59:16.071Z,1.30
2022-11-19T08:04:53.126Z,1.27
2022-11-19T08:10:21.631Z,1.43
2022-11-19T08:15:49.614Z,1.43
2022-11-19T08:18:38.325Z,1.40
2022-11-19T08:24:19.731Z,1.30
2022-11-19T08:29:51.310Z,1.60
2022-11-19T08:35:20.211Z,1.20
2022-11-19T08:38:09.915Z,1.60
2022-11-19T08:43:38.807Z,1.47
2022-11-19T08:46:26.879Z,1.53
2022-11-19T08:54:49.046Z,1.50
2022-11-19T08:57:38.150Z,1.60
2022-11-19T09:03:04.549Z,1.30
2022-11-19T09:08:40.603Z,1.30
2022-11-19T09:11:29.062Z,1.03
2022-11-19T09:17:07.291Z,1.40
2022-11-19T09:28:03.835Z,1.27
2022-11-19T09:33:39.995Z,1.10
2022-11-19T09:39:38.929Z,1.10
2022-11-19T09:42:32.381Z,1.27
2022-11-19T09:49:15.258Z,1.33
2022-11-19T09:55:27.103Z,1.50
2022-11-19T10:01:28.974Z,1.10
2022-11-19T10:08:01.877Z,1.27
2022-11-19T10:17:16.957Z,1.00
2022-11-19T10:23:40.014Z,1.20
2022-11-19T10:26:33.784Z,1.07
2022-11-19T10:32:31.371Z,1.10
2022-11-19T10:35:22.967Z,1.13
2022-11-19T10:40:57.964Z,1.00
2022-11-19T10:49:23.337Z,1.50
2022-11-19T10:55:23.682Z,1.20
2022-11-19T11:01:05.328Z,1.70
2022-11-19T11:06:53.215Z,1.63
2022-11-19T11:12:46.309Z,1.27
2022-11-19T11:18:17.491Z,1.60
2022-11-19T11:23:53.361Z,1.43
2022-11-19T11:29:29.879Z,1.13
2022-11-19T11:32:31.771Z,1.30
2022-11-19T11:46:50.256Z,1.10
2022-11-19T11:52:30.861Z,1.53
2022-11-19T11:58:28.425Z,1.20
2022-11-19T12:01:18.561Z,0.90
2022-11-19T12:06:51.429Z,1.10
2022-11-19T12:09:44.702Z,1.10
2022-11-19T12:15:19.902Z,0.87
2022-11-19T12:20:58.577Z,1.07
2022-11-19T12:29:28.866Z,1.00
2022-11-19T12:35:26.487Z,1.20
2022-11-19T12:38:25.440Z,1.00
2022-11-19T12:44:00.673Z,1.13
2022-11-19T12:49:53.331Z,1.00
2022-11-19T12:55:40.192Z,1.23
2022-11-19T13:01:15.470Z,0.80
2022-11-19T13:06:55.110Z,1.30
2022-11-19T13:09:46.111Z,1.07
2022-11-19T13:15:20.929Z,1.47
2022-11-19T13:20:50.832Z,1.30
2022-11-19T13:26:26.750Z,1.27
2022-11-19T13:31:58.867Z,1.33
2022-11-19T13:38:00.060Z,1.27
2022-11-19T13:44:00.351Z,1.50
2022-11-19T13:52:24.739Z,1.33
2022-11-19T13:55:28.975Z,1.30
2022-11-19T14:01:46.088Z,1.17
2022-11-19T14:10:43.687Z,2.03
2022-11-19T14:13:41.604Z,1.20
2022-11-19T14:19:33.349Z,1.60
2022-11-19T14:26:00.658Z,1.20
2022-11-19T14:31:53.029Z,1.40
2022-11-19T14:37:33.514Z,1.53
2022-11-19T14:40:23.388Z,1.00
2022-11-19T14:43:46.353Z,1.20
2022-11-19T14:46:35.525Z,1.40
2022-11-19T14:52:23.022Z,1.40
2022-11-19T14:58:12.387Z,1.40
2022-11-19T15:01:09.710Z,1.30
2022-11-19T15:06:47.966Z,1.60
2022-11-19T15:15:41.722Z,1.70
2022-11-19T15:19:12.801Z,1.80
2022-11-19T15:22:23.253Z,1.50
2022-11-19T15:28:24.426Z,1.47
2022-11-19T15:31:22.371Z,1.80
2022-11-19T15:34:38.610Z,1.90
2022-11-19T15:40:15.100Z,1.60
2022-11-19T15:45:52.248Z,2.07
2022-11-19T15:48:43.758Z,2.23
2022-11-19T15:54:40.986Z,1.80
2022-11-19T16:00:21.069Z,1.90
2022-11-19T16:03:11.612Z,1.97
2022-11-19T16:08:49.263Z,1.97
2022-11-19T16:14:40.671Z,1.70
2022-11-19T16:20:22.133Z,1.97
2022-11-19T16:23:11.785Z,1.77
2022-11-19T16:28:51.657Z,2.40
2022-11-19T16:34:26.671Z,2.47
2022-11-19T16:39:54.870Z,2.07
2022-11-19T16:45:39.918Z,1.43
2022-11-19T16:51:45.801Z,1.77
2022-11-19T16:57:31.830Z,1.90
2022-11-19T17:03:02.128Z,1.90
2022-11-19T17:08:32.102Z,1.97
2022-11-19T17:14:20.480Z,1.50
2022-11-19T17:20:01.628Z,2.30
2022-11-19T17:22:49.749Z,2.17
2022-11-19T17:25:37.895Z,2.10
2022-11-19T17:28:37.909Z,1.87
2022-11-19T17:34:20.572Z,6.53
2022-11-19T17:39:57.103Z,4.33
2022-11-19T17:45:32.467Z,3.30
2022-11-19T17:51:15.078Z,3.17
2022-11-19T17:54:04.271Z,12.27
2022-11-19T17:56:54.206Z,5.93
2022-11-19T18:02:24.082Z,3.00
2022-11-19T18:08:04.043Z,2.40
2022-11-19T18:13:36.359Z,2.83
2022-11-19T18:19:14.736Z,11.10
2022-11-19T18:22:02.971Z,6.00
2022-11-19T18:27:38.808Z,3.20
2022-11-19T18:33:10.410Z,3.60
2022-11-19T18:38:42.526Z,4.20
2022-11-19T18:44:34.390Z,3.13
2022-11-19T18:50:13.483Z,3.50
2022-11-19T18:53:03.500Z,3.50
2022-11-19T18:58:36.659Z,2.93
2022-11-19T19:01:25.390Z,1.90
2022-11-19T19:06:55.933Z,1.60
2022-11-19T19:12:25.789Z,1.87
2022-11-19T19:18:06.441Z,1.80
2022-11-19T19:23:35.790Z,2.17
2022-11-19T19:26:25.367Z,1.70
2022-11-19T19:31:55.335Z,1.80
2022-11-19T19:34:45.565Z,2.07
2022-11-19T19:37:34.853Z,2.10
2022-11-19T19:40:23.421Z,1.50
2022-11-19T19:43:12.938Z,1.43
2022-11-19T19:46:05.599Z,2.37
2022-11-19T19:51:41.408Z,1.40
2022-11-19T19:54:29.699Z,1.37
2022-11-19T20:00:19.282Z,1.20
2022-11-19T20:05:51.898Z,1.03
2022-11-19T20:11:24.122Z,1.20
2022-11-19T20:16:58.414Z,2.03
2022-11-19T20:22:33.106Z,1.60
2022-11-19T20:28:08.669Z,1.10
2022-11-19T20:33:50.644Z,1.20
2022-11-19T20:36:38.802Z,1.50
2022-11-19T20:39:26.655Z,1.37
2022-11-19T20:45:02.248Z,1.07
2022-11-19T20:47:50.614Z,0.97
2022-11-19T20:53:26.027Z,1.20
2022-11-19T20:58:56.488Z,1.20
2022-11-19T21:01:44.814Z,1.47
2022-11-19T21:04:35.516Z,1.43
2022-11-19T21:10:23.597Z,2.07
2022-11-19T21:15:54.774Z,1.60
2022-11-19T21:18:43.300Z,1.50
2022-11-19T21:21:31.721Z,1.60
2022-11-19T21:27:08.898Z,1.67
2022-11-19T21:29:56.590Z,1.90
2022-11-19T21:32:45.822Z,1.93
2022-11-19T21:35:34.965Z,2.37
2022-11-19T21:38:24.226Z,1.97
2022-11-19T21:41:12.331Z,2.20
2022-11-19T21:44:01.865Z,2.40
2022-11-19T21:49:37.892Z,2.43
2022-11-19T21:55:15.467Z,3.00
2022-11-19T21:58:05.909Z,2.50
2022-11-19T22:19:10.912Z,2.60
2022-11-19T22:29:12.782Z,3.13
2022-11-19T22:32:06.503Z,3.63
2022-11-19T22:37:34.767Z,3.90
2022-11-19T22:40:22.941Z,3.27
2022-11-19T22:46:00.332Z,3.97
2022-11-19T22:48:51.846Z,3.47
2022-11-19T22:51:42.075Z,3.83
2022-11-19T22:59:51.124Z,3.80
2022-11-19T23:05:21.606Z,3.57
2022-11-19T23:11:03.409Z,3.77
2022-11-19T23:16:38.915Z,4.10
2022-11-19T23:22:07.369Z,3.50
2022-11-19T23:27:49.096Z,3.80
2022-11-19T23:30:38.761Z,3.60
2022-11-19T23:36:14.286Z,3.63
2022-11-19T23:41:44.233Z,4.13
2022-11-19T23:47:12.999Z,3.43
2022-11-19T23:52:53.070Z,3.33
2022-11-19T23:58:22.521Z,3.77
